sensor_id;sensor_type;location;lat;lon;timestamp;temperature;humidity
45785;DHT22;31489;51.404;5.474;2022-09-21T00:00:48;15.40;66.20
45785;DHT22;31489;51.404;5.474;2022-09-21T00:04:24;15.30;66.20
45785;DHT22;31489;51.404;5.474;2022-09-21T00:10:57;15.30;65.60
45785;DHT22;31489;51.404;5.474;2022-09-21T00:34:36;15.00;65.60
45785;DHT22;31489;51.404;5.474;2022-09-21T00:38:21;15.00;65.70
45785;DHT22;31489;51.404;5.474;2022-09-21T00:41:56;14.90;65.60
45785;DHT22;31489;51.404;5.474;2022-09-21T00:45:15;14.90;65.60
45785;DHT22;31489;51.404;5.474;2022-09-21T00:48:18;14.80;65.50
45785;DHT22;31489;51.404;5.474;2022-09-21T00:51:57;14.70;65.50
45785;DHT22;31489;51.404;5.474;2022-09-21T00:55:01;14.70;65.50
45785;DHT22;31489;51.404;5.474;2022-09-21T00:58:45;14.60;65.60
45785;DHT22;31489;51.404;5.474;2022-09-21T01:05:17;14.60;65.40
45785;DHT22;31489;51.404;5.474;2022-09-21T01:33:32;14.30;66.40
45785;DHT22;31489;51.404;5.474;2022-09-21T01:43:46;14.20;66.60
45785;DHT22;31489;51.404;5.474;2022-09-21T01:47:07;14.20;66.70
45785;DHT22;31489;51.404;5.474;2022-09-21T02:00:32;14.20;67.00
45785;DHT22;31489;51.404;5.474;2022-09-21T02:03:56;14.20;67.00
45785;DHT22;31489;51.404;5.474;2022-09-21T02:10:14;14.20;67.00
45785;DHT22;31489;51.404;5.474;2022-09-21T02:13:08;14.20;67.10
45785;DHT22;31489;51.404;5.474;2022-09-21T02:16:39;14.20;66.70
45785;DHT22;31489;51.404;5.474;2022-09-21T02:23:22;14.20;66.80
45785;DHT22;31489;51.404;5.474;2022-09-21T02:41:55;14.10;66.50
45785;DHT22;31489;51.404;5.474;2022-09-21T02:52:42;14.00;66.30
45785;DHT22;31489;51.404;5.474;2022-09-21T02:56:32;13.90;66.10
45785;DHT22;31489;51.404;5.474;2022-09-21T03:03:13;13.80;65.90
45785;DHT22;31489;51.404;5.474;2022-09-21T03:06:04;13.80;65.90
45785;DHT22;31489;51.404;5.474;2022-09-21T03:09:00;13.80;65.70
45785;DHT22;31489;51.404;5.474;2022-09-21T03:12:10;13.70;65.70
45785;DHT22;31489;51.404;5.474;2022-09-21T03:19:04;13.60;66.30
45785;DHT22;31489;51.404;5.474;2022-09-21T03:22:39;13.60;65.70
45785;DHT22;31489;51.404;5.474;2022-09-21T03:29:50;13.50;65.70
45785;DHT22;31489;51.404;5.474;2022-09-21T03:36:47;13.40;65.70
45785;DHT22;31489;51.404;5.474;2022-09-21T03:40:22;13.40;65.50
45785;DHT22;31489;51.404;5.474;2022-09-21T03:47:04;13.30;65.70
45785;DHT22;31489;51.404;5.474;2022-09-21T03:53:21;13.20;65.60
45785;DHT22;31489;51.404;5.474;2022-09-21T03:56:11;13.20;65.70
45785;DHT22;31489;51.404;5.474;2022-09-21T03:59:07;13.20;65.90
45785;DHT22;31489;51.404;5.474;2022-09-21T04:05:54;13.10;65.90
45785;DHT22;31489;51.404;5.474;2022-09-21T04:09:23;13.10;66.00
45785;DHT22;31489;51.404;5.474;2022-09-21T04:15:32;13.10;66.20
45785;DHT22;31489;51.404;5.474;2022-09-21T04:18:10;13.10;66.20
45785;DHT22;31489;51.404;5.474;2022-09-21T04:21:31;13.10;66.30
45785;DHT22;31489;51.404;5.474;2022-09-21T04:24:34;13.10;66.50
45785;DHT22;31489;51.404;5.474;2022-09-21T04:27:49;13.10;66.30
45785;DHT22;31489;51.404;5.474;2022-09-21T04:31:05;13.00;66.50
45785;DHT22;31489;51.404;5.474;2022-09-21T04:34:11;13.00;66.70
45785;DHT22;31489;51.404;5.474;2022-09-21T04:36:59;13.00;66.70
45785;DHT22;31489;51.404;5.474;2022-09-21T04:39:36;13.00;66.60
45785;DHT22;31489;51.404;5.474;2022-09-21T04:42:42;13.10;66.80
45785;DHT22;31489;51.404;5.474;2022-09-21T04:45:11;13.10;66.80
45785;DHT22;31489;51.404;5.474;2022-09-21T04:47:44;13.10;66.70
45785;DHT22;31489;51.404;5.474;2022-09-21T04:50:24;13.10;66.90
45785;DHT22;31489;51.404;5.474;2022-09-21T04:56:38;13.10;67.20
45785;DHT22;31489;51.404;5.474;2022-09-21T05:00:08;13.10;67.20
45785;DHT22;31489;51.404;5.474;2022-09-21T05:06:29;13.10;67.20
45785;DHT22;31489;51.404;5.474;2022-09-21T05:13:30;13.10;67.10
45785;DHT22;31489;51.404;5.474;2022-09-21T05:16:07;13.10;67.20
45785;DHT22;31489;51.404;5.474;2022-09-21T05:18:40;13.10;66.90
45785;DHT22;31489;51.404;5.474;2022-09-21T05:21:55;13.10;67.30
45785;DHT22;31489;51.404;5.474;2022-09-21T05:24:30;13.10;67.40
45785;DHT22;31489;51.404;5.474;2022-09-21T05:27:26;13.00;68.00
45785;DHT22;31489;51.404;5.474;2022-09-21T05:30:18;13.10;67.70
45785;DHT22;31489;51.404;5.474;2022-09-21T05:33:15;13.10;67.70
45785;DHT22;31489;51.404;5.474;2022-09-21T05:38:40;13.10;67.80
45785;DHT22;31489;51.404;5.474;2022-09-21T05:41:10;13.10;67.70
45785;DHT22;31489;51.404;5.474;2022-09-21T05:43:37;13.10;67.80
45785;DHT22;31489;51.404;5.474;2022-09-21T05:46:10;13.10;67.90
45785;DHT22;31489;51.404;5.474;2022-09-21T05:48:42;13.10;68.20
45785;DHT22;31489;51.404;5.474;2022-09-21T05:54:14;13.20;68.60
45785;DHT22;31489;51.404;5.474;2022-09-21T06:00:16;13.30;69.10
45785;DHT22;31489;51.404;5.474;2022-09-21T06:03:18;13.30;69.10
45785;DHT22;31489;51.404;5.474;2022-09-21T06:05:50;13.30;69.40
45785;DHT22;31489;51.404;5.474;2022-09-21T06:08:15;13.40;69.00
45785;DHT22;31489;51.404;5.474;2022-09-21T06:10:47;13.40;69.10
45785;DHT22;31489;51.404;5.474;2022-09-21T06:13:13;13.50;69.40
45785;DHT22;31489;51.404;5.474;2022-09-21T06:15:39;13.50;69.40
45785;DHT22;31489;51.404;5.474;2022-09-21T06:18:09;13.50;69.50
45785;DHT22;31489;51.404;5.474;2022-09-21T06:20:39;13.60;69.70
45785;DHT22;31489;51.404;5.474;2022-09-21T06:23:22;13.60;69.90
45785;DHT22;31489;51.404;5.474;2022-09-21T06:25:55;13.70;70.60
45785;DHT22;31489;51.404;5.474;2022-09-21T06:28:21;13.70;70.50
45785;DHT22;31489;51.404;5.474;2022-09-21T06:30:51;13.80;70.40
45785;DHT22;31489;51.404;5.474;2022-09-21T06:33:17;13.80;70.60
45785;DHT22;31489;51.404;5.474;2022-09-21T06:35:52;13.90;70.70
45785;DHT22;31489;51.404;5.474;2022-09-21T06:38:18;14.00;71.20
45785;DHT22;31489;51.404;5.474;2022-09-21T06:40:45;14.00;71.00
45785;DHT22;31489;51.404;5.474;2022-09-21T06:43:16;14.10;71.10
45785;DHT22;31489;51.404;5.474;2022-09-21T06:45:55;14.10;71.20
45785;DHT22;31489;51.404;5.474;2022-09-21T06:48:25;14.20;71.60
45785;DHT22;31489;51.404;5.474;2022-09-21T06:50:56;14.30;71.10
45785;DHT22;31489;51.404;5.474;2022-09-21T06:53:22;14.30;71.30
45785;DHT22;31489;51.404;5.474;2022-09-21T06:55:53;14.40;71.20
45785;DHT22;31489;51.404;5.474;2022-09-21T06:58:21;14.40;71.40
45785;DHT22;31489;51.404;5.474;2022-09-21T07:00:50;14.50;71.30
45785;DHT22;31489;51.404;5.474;2022-09-21T07:03:15;14.50;71.30
45785;DHT22;31489;51.404;5.474;2022-09-21T07:05:44;14.50;71.30
45785;DHT22;31489;51.404;5.474;2022-09-21T07:08:12;14.60;71.40
45785;DHT22;31489;51.404;5.474;2022-09-21T07:10:44;14.60;71.30
45785;DHT22;31489;51.404;5.474;2022-09-21T07:13:10;14.70;71.70
45785;DHT22;31489;51.404;5.474;2022-09-21T07:15:38;14.70;71.50
45785;DHT22;31489;51.404;5.474;2022-09-21T07:18:32;14.80;71.90
45785;DHT22;31489;51.404;5.474;2022-09-21T07:21:09;14.90;71.30
45785;DHT22;31489;51.404;5.474;2022-09-21T07:23:39;15.00;71.30
45785;DHT22;31489;51.404;5.474;2022-09-21T07:26:10;15.10;71.20
45785;DHT22;31489;51.404;5.474;2022-09-21T07:28:39;15.10;71.30
45785;DHT22;31489;51.404;5.474;2022-09-21T07:31:12;15.20;71.20
45785;DHT22;31489;51.404;5.474;2022-09-21T07:33:38;15.30;71.60
45785;DHT22;31489;51.404;5.474;2022-09-21T07:36:05;15.30;71.10
45785;DHT22;31489;51.404;5.474;2022-09-21T07:38:42;15.40;71.30
45785;DHT22;31489;51.404;5.474;2022-09-21T07:41:11;15.40;71.10
45785;DHT22;31489;51.404;5.474;2022-09-21T07:43:37;15.50;70.90
45785;DHT22;31489;51.404;5.474;2022-09-21T07:46:07;15.60;70.70
45785;DHT22;31489;51.404;5.474;2022-09-21T07:48:33;15.70;70.70
45785;DHT22;31489;51.404;5.474;2022-09-21T07:51:06;15.70;70.40
45785;DHT22;31489;51.404;5.474;2022-09-21T07:53:34;15.80;70.30
45785;DHT22;31489;51.404;5.474;2022-09-21T07:56:08;15.80;69.90
45785;DHT22;31489;51.404;5.474;2022-09-21T07:58:35;15.90;69.80
45785;DHT22;31489;51.404;5.474;2022-09-21T08:01:20;15.90;69.50
45785;DHT22;31489;51.404;5.474;2022-09-21T08:03:50;16.00;69.60
45785;DHT22;31489;51.404;5.474;2022-09-21T08:06:17;16.00;69.70
45785;DHT22;31489;51.404;5.474;2022-09-21T08:08:46;16.00;69.30
45785;DHT22;31489;51.404;5.474;2022-09-21T08:11:16;16.10;69.20
45785;DHT22;31489;51.404;5.474;2022-09-21T08:13:42;16.10;68.90
45785;DHT22;31489;51.404;5.474;2022-09-21T08:16:08;16.10;68.90
45785;DHT22;31489;51.404;5.474;2022-09-21T08:18:38;16.10;68.80
45785;DHT22;31489;51.404;5.474;2022-09-21T08:21:05;16.20;68.50
45785;DHT22;31489;51.404;5.474;2022-09-21T08:23:31;16.20;68.20
45785;DHT22;31489;51.404;5.474;2022-09-21T08:26:01;16.20;68.50
45785;DHT22;31489;51.404;5.474;2022-09-21T08:28:31;16.30;68.40
45785;DHT22;31489;51.404;5.474;2022-09-21T08:31:02;16.30;68.10
45785;DHT22;31489;51.404;5.474;2022-09-21T08:33:28;16.40;67.80
45785;DHT22;31489;51.404;5.474;2022-09-21T08:35:59;16.40;67.70
45785;DHT22;31489;51.404;5.474;2022-09-21T08:38:26;16.40;67.50
45785;DHT22;31489;51.404;5.474;2022-09-21T08:40:52;16.50;66.90
45785;DHT22;31489;51.404;5.474;2022-09-21T08:43:37;16.50;67.30
45785;DHT22;31489;51.404;5.474;2022-09-21T08:46:20;16.60;67.20
45785;DHT22;31489;51.404;5.474;2022-09-21T08:49:19;16.60;66.80
45785;DHT22;31489;51.404;5.474;2022-09-21T08:51:57;16.70;67.80
45785;DHT22;31489;51.404;5.474;2022-09-21T08:54:48;16.80;66.50
45785;DHT22;31489;51.404;5.474;2022-09-21T08:57:16;16.80;66.70
45785;DHT22;31489;51.404;5.474;2022-09-21T08:59:49;16.90;66.50
45785;DHT22;31489;51.404;5.474;2022-09-21T09:17:53;17.30;64.30
45785;DHT22;31489;51.404;5.474;2022-09-21T09:20:41;17.30;64.40
45785;DHT22;31489;51.404;5.474;2022-09-21T09:25:50;17.50;64.60
45785;DHT22;31489;51.404;5.474;2022-09-21T09:28:29;17.50;64.40
45785;DHT22;31489;51.404;5.474;2022-09-21T09:31:09;17.60;64.20
45785;DHT22;31489;51.404;5.474;2022-09-21T09:36:17;17.70;63.90
45785;DHT22;31489;51.404;5.474;2022-09-21T09:38:56;17.80;64.00
45785;DHT22;31489;51.404;5.474;2022-09-21T09:42:02;17.90;63.80
45785;DHT22;31489;51.404;5.474;2022-09-21T09:49:58;18.20;64.10
45785;DHT22;31489;51.404;5.474;2022-09-21T09:52:29;18.30;63.20
45785;DHT22;31489;51.404;5.474;2022-09-21T09:54:55;18.40;63.40
45785;DHT22;31489;51.404;5.474;2022-09-21T09:57:29;18.40;62.60
45785;DHT22;31489;51.404;5.474;2022-09-21T10:00:04;18.50;62.20
45785;DHT22;31489;51.404;5.474;2022-09-21T10:02:48;18.60;62.20
45785;DHT22;31489;51.404;5.474;2022-09-21T10:05:24;18.70;61.10
45785;DHT22;31489;51.404;5.474;2022-09-21T10:08:38;18.80;60.20
45785;DHT22;31489;51.404;5.474;2022-09-21T10:11:07;18.90;60.40
45785;DHT22;31489;51.404;5.474;2022-09-21T10:13:34;19.10;62.40
45785;DHT22;31489;51.404;5.474;2022-09-21T10:18:59;19.50;60.30
45785;DHT22;31489;51.404;5.474;2022-09-21T10:21:39;19.80;59.70
45785;DHT22;31489;51.404;5.474;2022-09-21T10:24:19;19.90;59.60
45785;DHT22;31489;51.404;5.474;2022-09-21T10:26:49;20.00;57.90
45785;DHT22;31489;51.404;5.474;2022-09-21T10:32:16;20.20;56.00
45785;DHT22;31489;51.404;5.474;2022-09-21T10:37:37;20.60;56.90
45785;DHT22;31489;51.404;5.474;2022-09-21T10:40:26;21.00;56.00
45785;DHT22;31489;51.404;5.474;2022-09-21T10:43:04;21.40;56.40
45785;DHT22;31489;51.404;5.474;2022-09-21T10:45:34;21.80;54.80
45785;DHT22;31489;51.404;5.474;2022-09-21T10:50:40;22.20;56.20
45785;DHT22;31489;51.404;5.474;2022-09-21T10:53:35;22.40;55.10
45785;DHT22;31489;51.404;5.474;2022-09-21T10:56:13;22.80;54.80
45785;DHT22;31489;51.404;5.474;2022-09-21T11:01:51;23.20;52.30
45785;DHT22;31489;51.404;5.474;2022-09-21T11:04:42;23.30;51.70
45785;DHT22;31489;51.404;5.474;2022-09-21T11:07:22;23.20;50.60
45785;DHT22;31489;51.404;5.474;2022-09-21T11:10:12;23.10;50.50
45785;DHT22;31489;51.404;5.474;2022-09-21T11:15:32;23.00;50.30
45785;DHT22;31489;51.404;5.474;2022-09-21T11:18:39;22.90;50.60
45785;DHT22;31489;51.404;5.474;2022-09-21T11:26:43;22.40;51.20
45785;DHT22;31489;51.404;5.474;2022-09-21T11:29:17;22.30;51.60
45785;DHT22;31489;51.404;5.474;2022-09-21T11:41:03;21.80;51.40
45785;DHT22;31489;51.404;5.474;2022-09-21T11:58:22;21.30;51.90
45785;DHT22;31489;51.404;5.474;2022-09-21T12:04:00;21.30;51.80
45785;DHT22;31489;51.404;5.474;2022-09-21T12:06:34;21.40;50.80
45785;DHT22;31489;51.404;5.474;2022-09-21T12:09:28;21.70;52.10
45785;DHT22;31489;51.404;5.474;2022-09-21T12:12:08;22.20;50.50
45785;DHT22;31489;51.404;5.474;2022-09-21T12:15:03;22.60;49.90
45785;DHT22;31489;51.404;5.474;2022-09-21T12:20:23;23.60;48.10
45785;DHT22;31489;51.404;5.474;2022-09-21T12:22:59;24.00;47.30
45785;DHT22;31489;51.404;5.474;2022-09-21T12:25:30;24.40;47.20
45785;DHT22;31489;51.404;5.474;2022-09-21T12:30:29;25.10;46.20
45785;DHT22;31489;51.404;5.474;2022-09-21T12:33:25;25.40;44.40
45785;DHT22;31489;51.404;5.474;2022-09-21T12:36:06;25.60;43.70
45785;DHT22;31489;51.404;5.474;2022-09-21T12:38:41;25.80;43.20
45785;DHT22;31489;51.404;5.474;2022-09-21T12:41:49;26.00;41.20
45785;DHT22;31489;51.404;5.474;2022-09-21T12:44:40;26.10;42.60
45785;DHT22;31489;51.404;5.474;2022-09-21T12:52:45;26.30;42.10
45785;DHT22;31489;51.404;5.474;2022-09-21T13:00:37;26.30;42.30
45785;DHT22;31489;51.404;5.474;2022-09-21T13:06:14;26.40;45.10
45785;DHT22;31489;51.404;5.474;2022-09-21T13:08:45;26.50;41.10
45785;DHT22;31489;51.404;5.474;2022-09-21T13:11:12;26.60;41.00
45785;DHT22;31489;51.404;5.474;2022-09-21T13:13:51;26.60;40.90
45785;DHT22;31489;51.404;5.474;2022-09-21T13:16:25;26.60;40.00
45785;DHT22;31489;51.404;5.474;2022-09-21T13:19:22;26.60;40.00
45785;DHT22;31489;51.404;5.474;2022-09-21T13:24:45;26.80;40.20
45785;DHT22;31489;51.404;5.474;2022-09-21T13:39:15;27.30;40.00
45785;DHT22;31489;51.404;5.474;2022-09-21T13:41:45;27.40;38.90
45785;DHT22;31489;51.404;5.474;2022-09-21T13:44:18;27.50;39.10
45785;DHT22;31489;51.404;5.474;2022-09-21T13:46:47;27.60;38.90
45785;DHT22;31489;51.404;5.474;2022-09-21T13:49:38;27.70;39.90
45785;DHT22;31489;51.404;5.474;2022-09-21T13:55:02;27.80;39.70
45785;DHT22;31489;51.404;5.474;2022-09-21T14:07:41;27.70;38.80
45785;DHT22;31489;51.404;5.474;2022-09-21T14:10:19;27.60;38.40
45785;DHT22;31489;51.404;5.474;2022-09-21T14:12:46;27.50;38.40
45785;DHT22;31489;51.404;5.474;2022-09-21T14:20:36;27.40;38.70
45785;DHT22;31489;51.404;5.474;2022-09-21T14:23:28;27.50;38.80
45785;DHT22;31489;51.404;5.474;2022-09-21T14:25:58;27.40;38.40
45785;DHT22;31489;51.404;5.474;2022-09-21T14:28:45;27.40;37.60
45785;DHT22;31489;51.404;5.474;2022-09-21T14:31:26;27.30;38.50
45785;DHT22;31489;51.404;5.474;2022-09-21T14:33:55;27.10;38.00
45785;DHT22;31489;51.404;5.474;2022-09-21T14:36:31;26.90;38.70
45785;DHT22;31489;51.404;5.474;2022-09-21T14:39:04;26.70;38.00
45785;DHT22;31489;51.404;5.474;2022-09-21T14:41:38;26.50;38.70
45785;DHT22;31489;51.404;5.474;2022-09-21T14:44:05;26.30;39.10
45785;DHT22;31489;51.404;5.474;2022-09-21T14:54:36;25.60;39.70
45785;DHT22;31489;51.404;5.474;2022-09-21T15:00:20;25.30;41.80
45785;DHT22;31489;51.404;5.474;2022-09-21T15:06:30;25.00;41.10
45785;DHT22;31489;51.404;5.474;2022-09-21T15:15:33;24.50;42.00
45785;DHT22;31489;51.404;5.474;2022-09-21T15:18:01;24.40;41.50
45785;DHT22;31489;51.404;5.474;2022-09-21T15:20:29;24.30;42.00
45785;DHT22;31489;51.404;5.474;2022-09-21T15:23:00;24.10;42.10
45785;DHT22;31489;51.404;5.474;2022-09-21T15:25:30;24.00;42.40
45785;DHT22;31489;51.404;5.474;2022-09-21T15:27:57;23.90;42.60
45785;DHT22;31489;51.404;5.474;2022-09-21T15:30:26;23.80;42.70
45785;DHT22;31489;51.404;5.474;2022-09-21T15:33:00;23.70;42.80
45785;DHT22;31489;51.404;5.474;2022-09-21T15:35:29;23.60;43.10
45785;DHT22;31489;51.404;5.474;2022-09-21T15:37:58;23.50;43.70
45785;DHT22;31489;51.404;5.474;2022-09-21T15:45:27;23.40;43.80
45785;DHT22;31489;51.404;5.474;2022-09-21T15:47:54;23.30;44.00
45785;DHT22;31489;51.404;5.474;2022-09-21T15:50:25;23.30;44.50
45785;DHT22;31489;51.404;5.474;2022-09-21T15:53:00;23.30;44.50
45785;DHT22;31489;51.404;5.474;2022-09-21T15:55:29;23.30;44.40
45785;DHT22;31489;51.404;5.474;2022-09-21T15:57:56;23.20;44.70
45785;DHT22;31489;51.404;5.474;2022-09-21T16:00:28;23.20;45.20
45785;DHT22;31489;51.404;5.474;2022-09-21T16:03:16;23.10;44.90
45785;DHT22;31489;51.404;5.474;2022-09-21T16:05:48;23.10;45.30
45785;DHT22;31489;51.404;5.474;2022-09-21T16:08:35;23.00;45.30
45785;DHT22;31489;51.404;5.474;2022-09-21T16:14:12;22.90;45.40
45785;DHT22;31489;51.404;5.474;2022-09-21T16:17:20;22.80;45.20
45785;DHT22;31489;51.404;5.474;2022-09-21T16:22:38;22.70;45.40
45785;DHT22;31489;51.404;5.474;2022-09-21T16:27:54;22.50;46.00
45785;DHT22;31489;51.404;5.474;2022-09-21T16:30:40;22.40;46.30
45785;DHT22;31489;51.404;5.474;2022-09-21T16:38:54;22.20;46.60
45785;DHT22;31489;51.404;5.474;2022-09-21T16:41:20;22.10;46.50
45785;DHT22;31489;51.404;5.474;2022-09-21T16:43:47;22.00;46.70
45785;DHT22;31489;51.404;5.474;2022-09-21T16:46:15;21.90;46.80
45785;DHT22;31489;51.404;5.474;2022-09-21T16:48:42;21.90;46.80
45785;DHT22;31489;51.404;5.474;2022-09-21T16:51:13;21.80;47.00
45785;DHT22;31489;51.404;5.474;2022-09-21T16:53:40;21.70;47.20
45785;DHT22;31489;51.404;5.474;2022-09-21T16:56:13;21.60;47.20
45785;DHT22;31489;51.404;5.474;2022-09-21T16:58:40;21.60;47.40
45785;DHT22;31489;51.404;5.474;2022-09-21T17:01:17;21.50;47.40
45785;DHT22;31489;51.404;5.474;2022-09-21T17:03:46;21.40;47.60
45785;DHT22;31489;51.404;5.474;2022-09-21T17:06:16;21.30;48.30
45785;DHT22;31489;51.404;5.474;2022-09-21T17:08:43;21.30;47.90
45785;DHT22;31489;51.404;5.474;2022-09-21T17:11:08;21.20;48.00
45785;DHT22;31489;51.404;5.474;2022-09-21T17:13:34;21.10;48.20
45785;DHT22;31489;51.404;5.474;2022-09-21T17:16:03;21.00;48.30
45785;DHT22;31489;51.404;5.474;2022-09-21T17:18:34;20.90;48.40
45785;DHT22;31489;51.404;5.474;2022-09-21T17:21:00;20.80;48.50
45785;DHT22;31489;51.404;5.474;2022-09-21T17:23:28;20.70;48.70
45785;DHT22;31489;51.404;5.474;2022-09-21T17:25:55;20.60;48.90
45785;DHT22;31489;51.404;5.474;2022-09-21T17:28:23;20.60;49.20
45785;DHT22;31489;51.404;5.474;2022-09-21T17:30:53;20.50;49.40
45785;DHT22;31489;51.404;5.474;2022-09-21T17:33:19;20.40;49.60
45785;DHT22;31489;51.404;5.474;2022-09-21T17:35:46;20.30;49.70
45785;DHT22;31489;51.404;5.474;2022-09-21T17:38:12;20.30;49.90
45785;DHT22;31489;51.404;5.474;2022-09-21T17:40:39;20.10;49.90
45785;DHT22;31489;51.404;5.474;2022-09-21T17:46:11;20.00;50.40
45785;DHT22;31489;51.404;5.474;2022-09-21T17:48:39;19.90;51.20
45785;DHT22;31489;51.404;5.474;2022-09-21T17:51:05;19.80;50.50
45785;DHT22;31489;51.404;5.474;2022-09-21T17:53:31;19.70;50.70
45785;DHT22;31489;51.404;5.474;2022-09-21T17:59:04;19.60;51.30
45785;DHT22;31489;51.404;5.474;2022-09-21T18:01:32;19.50;51.40
45785;DHT22;31489;51.404;5.474;2022-09-21T18:03:59;19.40;51.50
45785;DHT22;31489;51.404;5.474;2022-09-21T18:06:25;19.30;51.60
45785;DHT22;31489;51.404;5.474;2022-09-21T18:08:51;19.20;51.80
45785;DHT22;31489;51.404;5.474;2022-09-21T18:24:42;18.80;53.30
45785;DHT22;31489;51.404;5.474;2022-09-21T18:27:10;18.70;53.20
45785;DHT22;31489;51.404;5.474;2022-09-21T18:29:36;18.70;53.50
45785;DHT22;31489;51.404;5.474;2022-09-21T18:32:45;18.60;53.50
45785;DHT22;31489;51.404;5.474;2022-09-21T18:35:36;18.60;54.00
45785;DHT22;31489;51.404;5.474;2022-09-21T18:38:10;18.60;54.20
45785;DHT22;31489;51.404;5.474;2022-09-21T18:46:10;18.40;54.50
45785;DHT22;31489;51.404;5.474;2022-09-21T18:54:28;18.20;54.60
45785;DHT22;31489;51.404;5.474;2022-09-21T18:56:54;18.20;54.70
45785;DHT22;31489;51.404;5.474;2022-09-21T18:59:21;18.10;54.80
45785;DHT22;31489;51.404;5.474;2022-09-21T19:01:47;18.10;54.90
45785;DHT22;31489;51.404;5.474;2022-09-21T19:04:14;18.00;55.00
45785;DHT22;31489;51.404;5.474;2022-09-21T19:06:59;17.90;55.20
45785;DHT22;31489;51.404;5.474;2022-09-21T19:09:46;17.90;55.60
45785;DHT22;31489;51.404;5.474;2022-09-21T19:23:43;17.60;56.10
45785;DHT22;31489;51.404;5.474;2022-09-21T19:26:19;17.60;55.80
45785;DHT22;31489;51.404;5.474;2022-09-21T19:29:19;17.50;56.10
45785;DHT22;31489;51.404;5.474;2022-09-21T19:31:46;17.50;56.40
45785;DHT22;31489;51.404;5.474;2022-09-21T19:34:16;17.40;56.10
45785;DHT22;31489;51.404;5.474;2022-09-21T19:36:43;17.40;56.50
45785;DHT22;31489;51.404;5.474;2022-09-21T19:39:10;17.30;56.50
45785;DHT22;31489;51.404;5.474;2022-09-21T19:42:11;17.30;56.60
45785;DHT22;31489;51.404;5.474;2022-09-21T19:45:03;17.20;57.10
45785;DHT22;31489;51.404;5.474;2022-09-21T19:47:38;17.20;57.10
45785;DHT22;31489;51.404;5.474;2022-09-21T19:50:41;17.10;57.00
45785;DHT22;31489;51.404;5.474;2022-09-21T19:53:11;17.00;57.20
45785;DHT22;31489;51.404;5.474;2022-09-21T19:55:58;17.00;56.90
45785;DHT22;31489;51.404;5.474;2022-09-21T19:58:43;17.00;57.10
45785;DHT22;31489;51.404;5.474;2022-09-21T20:01:29;16.90;57.10
45785;DHT22;31489;51.404;5.474;2022-09-21T20:03:57;16.90;57.20
45785;DHT22;31489;51.404;5.474;2022-09-21T20:06:46;16.80;57.30
45785;DHT22;31489;51.404;5.474;2022-09-21T20:09:21;16.80;57.90
45785;DHT22;31489;51.404;5.474;2022-09-21T20:14:47;16.70;58.00
45785;DHT22;31489;51.404;5.474;2022-09-21T20:17:22;16.70;57.70
45785;DHT22;31489;51.404;5.474;2022-09-21T20:20:00;16.60;58.50
45785;DHT22;31489;51.404;5.474;2022-09-21T20:22:37;16.60;57.90
45785;DHT22;31489;51.404;5.474;2022-09-21T20:25:11;16.50;58.00
45785;DHT22;31489;51.404;5.474;2022-09-21T20:27:46;16.50;58.10
45785;DHT22;31489;51.404;5.474;2022-09-21T20:30:15;16.40;58.20
45785;DHT22;31489;51.404;5.474;2022-09-21T20:32:43;16.40;58.00
45785;DHT22;31489;51.404;5.474;2022-09-21T20:35:20;16.40;58.20
45785;DHT22;31489;51.404;5.474;2022-09-21T20:37:46;16.30;58.20
45785;DHT22;31489;51.404;5.474;2022-09-21T20:40:12;16.30;58.00
45785;DHT22;31489;51.404;5.474;2022-09-21T20:42:39;16.30;57.90
45785;DHT22;31489;51.404;5.474;2022-09-21T20:45:06;16.20;58.10
45785;DHT22;31489;51.404;5.474;2022-09-21T20:47:32;16.20;58.20
45785;DHT22;31489;51.404;5.474;2022-09-21T20:49:58;16.10;58.30
45785;DHT22;31489;51.404;5.474;2022-09-21T20:52:31;16.10;58.40
45785;DHT22;31489;51.404;5.474;2022-09-21T20:54:58;16.10;58.80
45785;DHT22;31489;51.404;5.474;2022-09-21T20:57:25;16.00;58.50
45785;DHT22;31489;51.404;5.474;2022-09-21T20:59:50;16.00;58.60
45785;DHT22;31489;51.404;5.474;2022-09-21T21:02:16;15.90;58.60
45785;DHT22;31489;51.404;5.474;2022-09-21T21:04:42;16.00;58.70
45785;DHT22;31489;51.404;5.474;2022-09-21T21:07:07;15.90;58.70
45785;DHT22;31489;51.404;5.474;2022-09-21T21:09:33;15.90;58.80
45785;DHT22;31489;51.404;5.474;2022-09-21T21:11:59;15.80;58.80
45785;DHT22;31489;51.404;5.474;2022-09-21T21:14:24;15.80;58.80
45785;DHT22;31489;51.404;5.474;2022-09-21T21:16:51;15.70;58.90
45785;DHT22;31489;51.404;5.474;2022-09-21T21:19:16;15.70;58.90
45785;DHT22;31489;51.404;5.474;2022-09-21T21:21:43;15.70;58.90
45785;DHT22;31489;51.404;5.474;2022-09-21T21:24:09;15.60;58.90
45785;DHT22;31489;51.404;5.474;2022-09-21T21:26:53;15.60;59.00
45785;DHT22;31489;51.404;5.474;2022-09-21T21:29:20;15.60;59.00
45785;DHT22;31489;51.404;5.474;2022-09-21T21:31:46;15.50;59.10
45785;DHT22;31489;51.404;5.474;2022-09-21T21:34:13;15.60;59.20
45785;DHT22;31489;51.404;5.474;2022-09-21T21:36:38;15.50;59.20
45785;DHT22;31489;51.404;5.474;2022-09-21T21:39:05;15.50;59.20
45785;DHT22;31489;51.404;5.474;2022-09-21T21:41:31;15.40;59.20
45785;DHT22;31489;51.404;5.474;2022-09-21T21:43:57;15.40;59.30
45785;DHT22;31489;51.404;5.474;2022-09-21T21:46:23;15.40;59.30
45785;DHT22;31489;51.404;5.474;2022-09-21T21:48:50;15.40;59.30
45785;DHT22;31489;51.404;5.474;2022-09-21T21:51:16;15.30;59.40
45785;DHT22;31489;51.404;5.474;2022-09-21T21:53:41;15.30;59.50
45785;DHT22;31489;51.404;5.474;2022-09-21T21:58:35;15.20;59.50
45785;DHT22;31489;51.404;5.474;2022-09-21T22:03:32;15.10;59.70
45785;DHT22;31489;51.404;5.474;2022-09-21T22:05:58;15.10;59.50
45785;DHT22;31489;51.404;5.474;2022-09-21T22:08:24;15.10;59.60
45785;DHT22;31489;51.404;5.474;2022-09-21T22:10:52;15.10;59.60
45785;DHT22;31489;51.404;5.474;2022-09-21T22:13:18;15.00;59.60
45785;DHT22;31489;51.404;5.474;2022-09-21T22:15:44;15.00;59.60
45785;DHT22;31489;51.404;5.474;2022-09-21T22:18:11;15.00;59.70
45785;DHT22;31489;51.404;5.474;2022-09-21T22:20:36;15.00;59.70
45785;DHT22;31489;51.404;5.474;2022-09-21T22:23:02;14.90;59.70
45785;DHT22;31489;51.404;5.474;2022-09-21T22:25:28;14.90;59.80
45785;DHT22;31489;51.404;5.474;2022-09-21T22:27:54;14.90;59.80
45785;DHT22;31489;51.404;5.474;2022-09-21T22:30:20;14.80;60.30
45785;DHT22;31489;51.404;5.474;2022-09-21T22:32:46;14.80;59.80
45785;DHT22;31489;51.404;5.474;2022-09-21T22:35:12;14.80;59.80
45785;DHT22;31489;51.404;5.474;2022-09-21T22:37:37;14.70;59.80
45785;DHT22;31489;51.404;5.474;2022-09-21T22:40:03;14.70;59.80
45785;DHT22;31489;51.404;5.474;2022-09-21T22:42:29;14.70;59.90
45785;DHT22;31489;51.404;5.474;2022-09-21T22:44:56;14.60;59.80
45785;DHT22;31489;51.404;5.474;2022-09-21T22:47:21;14.70;60.00